Main page
Satellite images 15-day forecastsClimateMarine weather Cyclones Lightning AirportsFAQ Newsletter About
Weather : Europe Africa North America South America Asia Australia-Oceania Others
Languages Contact

Mangalore, India

Bajpe

latitude: 12-55N, longitude: 074-53E, elevation: 102 m


METAR: missing
TAF: VOML 230900Z 2312/2418 29005KT 6000 FEW015 BECMG 2315/2316 11005KT BECMG 2322/2323 3000 HZ SCT010 TEMPO 2400/2403 1500 BR SCT005 BECMG 2403/2404 6000 FEW015 BECMG 2409/2410 29005KT

Time: 18:29 (12:59 UTC)

Forecast

The report was made 3 hours and 59 minutes ago, at 09:00 UTC
Forecast valid from 23 at 12 UTC to 24 at 18 UTC
Wind 5 kt from the West/Northwest
Visibility: 6000 m
Few clouds at a height of 1500 ft
Becoming
from 23 at 15 UTC to 23 at 16 UTC
Wind 5 kt from the East/Southeast
Becoming
from 23 at 22 UTC to 23 at 23 UTC
Visibility: 3000 m
Scattered clouds at a height of 1000 ft
haze
Temporary
from 24 at 00 UTC to 24 at 03 UTC
Visibility: 1500 m
Scattered clouds at a height of 500 ft
mist
Becoming
from 24 at 03 UTC to 24 at 04 UTC
Visibility: 6000 m
Few clouds at a height of 1500 ft
Becoming
from 24 at 09 UTC to 24 at 10 UTC
Wind 5 kt from the West/Northwest
The information on this site is subject to a disclaimer
Weather : Europe Africa North America South America Asia Australia-Oceania Others
Satellite images 15-day forecastsClimateMarine weather Cyclones Lightning AirportsFAQ Languages Contact Newsletter About